createdAt,value
2023-03-23T15:59:55.159Z,100129.19
2023-03-23T16:03:04.642Z,100149.75
2023-03-23T16:06:12.083Z,100134.19
2023-03-23T16:09:27.264Z,100128.66
2023-03-23T16:12:29.799Z,100139.81
2023-03-23T16:15:32.422Z,100141.63
2023-03-23T16:18:35.022Z,100156.94
2023-03-23T16:21:37.692Z,100163.78
2023-03-23T16:24:40.467Z,100147.06
2023-03-23T16:27:43.623Z,100149.00
2023-03-23T16:30:47.271Z,100174.03
2023-03-23T16:33:49.895Z,100170.38
2023-03-23T16:36:52.466Z,100145.63
2023-03-23T16:39:55.079Z,100146.38
2023-03-23T16:42:57.948Z,100147.00
2023-03-23T16:46:01.113Z,100146.44
2023-03-23T16:49:04.147Z,100184.13
2023-03-23T16:52:06.859Z,100154.00
2023-03-23T16:55:11.117Z,100149.50
2023-03-23T16:58:17.374Z,100157.03
2023-03-23T17:01:20.989Z,100145.56
2023-03-23T17:04:23.633Z,100179.72
2023-03-23T17:07:26.290Z,100182.63
2023-03-23T17:10:29.480Z,100167.84
2023-03-23T17:13:32.115Z,100168.00
2023-03-23T17:16:34.858Z,100169.47
2023-03-23T17:19:37.590Z,100173.31
2023-03-23T17:22:40.834Z,100153.25
2023-03-23T17:25:45.749Z,100179.56
2023-03-23T17:28:48.542Z,100172.66
2023-03-23T17:31:51.977Z,100171.56
2023-03-23T17:34:54.614Z,100182.38
2023-03-23T17:37:57.889Z,100183.59
2023-03-23T17:41:01.977Z,100162.06
2023-03-23T17:44:04.695Z,100179.50
2023-03-23T17:47:07.558Z,100156.91
2023-03-23T17:50:11.299Z,100184.41
2023-03-23T17:53:15.940Z,100175.28
2023-03-23T17:56:18.654Z,100197.50
2023-03-23T17:59:23.410Z,100187.78
2023-03-23T18:02:26.442Z,100193.38
2023-03-23T18:05:29.423Z,100196.59
2023-03-23T18:08:32.778Z,100211.03
2023-03-23T18:11:35.836Z,100186.75
2023-03-23T18:14:40.064Z,100211.72
2023-03-23T18:17:45.405Z,100214.84
2023-03-23T18:20:48.073Z,100214.66
2023-03-23T18:23:59.228Z,100201.59
2023-03-23T18:27:03.629Z,100221.91
2023-03-23T18:30:07.629Z,100213.25
2023-03-23T18:33:10.665Z,100211.78
2023-03-23T18:36:18.788Z,100211.94
2023-03-23T18:39:22.132Z,100195.06
2023-03-23T18:42:25.229Z,100178.00
2023-03-23T18:45:28.115Z,100217.66
2023-03-23T18:48:31.698Z,100185.22
2023-03-23T18:51:34.651Z,100215.28
2023-03-23T18:54:40.488Z,100213.75
2023-03-23T18:57:43.799Z,100202.00
2023-03-23T19:00:47.335Z,100195.94
2023-03-23T19:03:50.303Z,100215.38
2023-03-23T19:06:53.361Z,100184.78
2023-03-23T19:09:56.427Z,100184.16
2023-03-23T19:12:59.593Z,100204.03
2023-03-23T19:16:03.592Z,100210.63
2023-03-23T19:19:10.197Z,100201.97
2023-03-23T19:22:14.154Z,100179.13
2023-03-23T19:25:17.867Z,100186.31
2023-03-23T19:29:08.419Z,100211.16
2023-03-23T19:31:46.331Z,100185.47
2023-03-23T19:34:51.233Z,100207.84
2023-03-23T19:37:54.317Z,100224.44
2023-03-23T19:40:58.101Z,100223.94
2023-03-23T19:44:01.523Z,100230.59
2023-03-23T19:47:04.511Z,100221.72
2023-03-23T19:50:08.148Z,100230.13
2023-03-23T19:53:11.331Z,100234.03
2023-03-23T19:56:19.941Z,100228.63
2023-03-23T19:59:23.759Z,100203.59
2023-03-23T20:02:26.915Z,100197.13
2023-03-23T20:05:29.726Z,100234.06
2023-03-23T20:08:33.085Z,100245.78
2023-03-23T20:11:36.213Z,100225.22
2023-03-23T20:14:44.208Z,100249.22
2023-03-23T20:17:48.321Z,100248.47
2023-03-23T20:20:52.664Z,100253.03
2023-03-23T20:23:57.614Z,100245.56
2023-03-23T20:27:03.189Z,100227.44
2023-03-23T20:30:07.610Z,100246.28
2023-03-23T20:33:12.328Z,100250.09
2023-03-23T20:36:19.946Z,100226.53
2023-03-23T20:39:23.503Z,100242.22
2023-03-23T20:42:26.306Z,100239.63
2023-03-23T20:45:29.686Z,100240.00
2023-03-23T20:48:34.931Z,100211.75
2023-03-23T20:51:37.737Z,100234.03
2023-03-23T20:54:41.299Z,100225.31
2023-03-23T20:57:45.092Z,100240.16
2023-03-23T21:00:49.538Z,100217.50
2023-03-23T21:03:54.142Z,100243.38
2023-03-23T21:06:57.430Z,100245.91
2023-03-23T21:10:00.292Z,100209.31
2023-03-23T21:13:03.564Z,100207.63
2023-03-23T21:16:07.694Z,100207.56
2023-03-23T21:19:10.943Z,100217.28
2023-03-23T21:22:14.816Z,100219.19
2023-03-23T21:25:17.577Z,100231.69
2023-03-23T21:28:20.353Z,100211.75
2023-03-23T21:31:30.517Z,100230.31
2023-03-23T21:34:33.242Z,100220.94
2023-03-23T21:37:35.843Z,100250.72
2023-03-23T21:40:38.482Z,100219.88
2023-03-23T21:43:41.519Z,100226.97
2023-03-23T21:46:44.287Z,100247.22
2023-03-23T21:49:47.124Z,100234.41
2023-03-23T21:52:51.014Z,100250.19
2023-03-23T21:55:54.630Z,100248.88
2023-03-23T21:58:57.430Z,100242.59
2023-03-23T22:02:02.212Z,100234.94
2023-03-23T22:05:05.161Z,100252.31
2023-03-23T22:08:09.412Z,100246.06
2023-03-23T22:11:24.767Z,100230.75
2023-03-23T22:14:27.962Z,100248.13
2023-03-23T22:17:31.487Z,100229.28
2023-03-23T22:20:34.682Z,100217.78
2023-03-23T22:23:37.962Z,100217.66
2023-03-23T22:26:41.010Z,100203.81
2023-03-23T22:29:43.807Z,100232.91
2023-03-23T22:32:47.155Z,100192.41
2023-03-23T22:35:50.664Z,100216.88
2023-03-23T22:38:55.613Z,100239.00
2023-03-23T22:41:58.465Z,100217.53
2023-03-23T22:45:01.454Z,100221.22
2023-03-23T22:48:06.941Z,100225.66
2023-03-23T22:51:11.177Z,100236.00
2023-03-23T22:54:13.973Z,100231.13
2023-03-23T22:57:17.306Z,100246.38
2023-03-23T23:00:21.160Z,100247.22
2023-03-23T23:03:24.827Z,100232.19
2023-03-23T23:06:27.740Z,100220.28
2023-03-23T23:09:30.735Z,100218.22
2023-03-23T23:12:35.346Z,100235.63
2023-03-23T23:15:41.756Z,100221.78
2023-03-23T23:18:47.660Z,100193.97
2023-03-23T23:21:51.035Z,100228.16
2023-03-23T23:24:54.238Z,100224.47
2023-03-23T23:28:01.123Z,100220.41
2023-03-23T23:31:06.364Z,100220.41
2023-03-23T23:34:12.933Z,100246.03
2023-03-23T23:37:15.923Z,100224.56
2023-03-23T23:40:19.637Z,100245.81
2023-03-23T23:43:22.283Z,100216.22
2023-03-23T23:46:25.537Z,100222.13
2023-03-23T23:49:28.669Z,100212.56
2023-03-23T23:52:31.322Z,100216.50
2023-03-23T23:55:34.245Z,100241.28
2023-03-23T23:58:37.421Z,100232.66
